Time;durP1;ratioP1;P1;durP2;ratioP2;P2;SDS_P1;SDS_P2;PMS_P1;PMS_P2;Temp;Humidity;BMP_temperature;BMP_pressure;BME280_temperature;BME280_humidity;BME280_pressure;Samples;Min_cycle;Max_cycle;Signal;HPM_P1;HPM_P2
2024/01/06 00:01:21;;;;;;;7.00;2.57;;;7.20;77.80;;;;;;5005222;28;20256;-78
2024/01/06 00:03:49;;;;;;;5.15;2.30;;;7.20;77.70;;;;;;5022454;28;20464;-78
2024/01/06 00:06:17;;;;;;;5.95;2.13;;;7.20;77.60;;;;;;5008377;28;20234;-78
2024/01/06 00:08:45;;;;;;;7.25;2.63;;;7.10;77.50;;;;;;5016472;28;20194;-78
2024/01/06 00:11:13;;;;;;;5.88;2.70;;;7.00;77.40;;;;;;5010933;28;20212;-78
2024/01/06 00:13:44;;;;;;;7.70;2.97;;;7.00;77.40;;;;;;5009975;28;20240;-78
2024/01/06 00:16:11;;;;;;;6.82;2.67;;;6.90;77.50;;;;;;5012225;28;20216;-78
2024/01/06 00:18:40;;;;;;;9.52;3.67;;;6.80;77.60;;;;;;5008727;28;20625;-78
2024/01/06 00:21:09;;;;;;;8.07;3.00;;;6.80;77.70;;;;;;5006205;28;20205;-78
2024/01/06 00:23:37;;;;;;;6.25;2.55;;;6.80;77.70;;;;;;5008691;28;20300;-78
2024/01/06 00:26:05;;;;;;;10.10;4.95;;;6.80;77.50;;;;;;5009637;28;20210;-78
2024/01/06 00:28:33;;;;;;;8.90;5.00;;;6.80;77.60;;;;;;5007456;28;20636;-78
2024/01/06 00:31:02;;;;;;;9.70;5.05;;;6.70;77.70;;;;;;5011456;28;20260;-78
2024/01/06 00:33:30;;;;;;;9.68;4.38;;;6.70;77.60;;;;;;5012612;28;20277;-78
2024/01/06 00:35:58;;;;;;;10.30;4.35;;;6.70;77.70;;;;;;5026474;28;20213;-78
2024/01/06 00:38:26;;;;;;;13.68;5.38;;;6.70;77.70;;;;;;5009275;28;20229;-78
2024/01/06 00:40:55;;;;;;;9.70;3.78;;;6.70;77.70;;;;;;5012001;28;20217;-78
2024/01/06 00:43:23;;;;;;;9.55;4.80;;;6.70;77.70;;;;;;5011862;28;20225;-78
2024/01/06 00:45:51;;;;;;;12.20;5.53;;;6.70;77.60;;;;;;5013627;28;20202;-78
2024/01/06 00:48:20;;;;;;;11.35;4.63;;;6.70;77.60;;;;;;5012186;28;20256;-77
2024/01/06 00:50:49;;;;;;;9.77;4.40;;;6.60;77.70;;;;;;5024190;28;20773;-77
2024/01/06 00:53:16;;;;;;;8.05;3.80;;;6.60;77.60;;;;;;5017847;28;20273;-77
2024/01/06 00:55:45;;;;;;;8.57;4.50;;;6.60;77.80;;;;;;5017983;28;20213;-78
2024/01/06 00:58:13;;;;;;;8.80;4.78;;;6.60;77.70;;;;;;5020394;28;20210;-78
2024/01/06 01:00:41;;;;;;;12.13;6.45;;;6.50;77.70;;;;;;5021386;28;20304;-78
2024/01/06 01:03:09;;;;;;;13.20;7.43;;;6.50;77.80;;;;;;5031028;28;20216;-78
2024/01/06 01:05:38;;;;;;;12.63;5.10;;;6.50;77.80;;;;;;5014818;28;20218;-78
2024/01/06 01:08:07;;;;;;;42.50;19.08;;;6.50;77.90;;;;;;5028528;28;20269;-77
2024/01/06 01:10:34;;;;;;;35.13;15.70;;;6.50;77.80;;;;;;5014705;28;20224;-78
2024/01/06 01:13:02;;;;;;;20.17;9.60;;;6.50;77.80;;;;;;5026817;28;20274;-78
2024/01/06 01:15:30;;;;;;;16.55;7.78;;;6.50;77.80;;;;;;5020188;28;20186;-78
2024/01/06 01:17:58;;;;;;;23.63;10.38;;;6.50;77.80;;;;;;5024938;28;20256;-78
2024/01/06 01:20:26;;;;;;;18.98;9.40;;;6.40;77.80;;;;;;5011221;28;20202;-78
2024/01/06 01:22:55;;;;;;;16.40;7.75;;;6.40;77.90;;;;;;5009689;28;20269;-78
2024/01/06 01:25:26;;;;;;;13.45;6.57;;;6.40;77.90;;;;;;5012094;28;20204;-77
2024/01/06 01:27:53;;;;;;;15.52;4.90;;;6.40;78.00;;;;;;5012038;28;20205;-78
2024/01/06 01:30:21;;;;;;;12.30;4.72;;;6.50;77.90;;;;;;5013146;28;20273;-78
2024/01/06 01:32:50;;;;;;;40.17;15.52;;;6.50;78.00;;;;;;5012445;28;20843;-78
2024/01/06 01:35:18;;;;;;;17.23;8.57;;;6.50;78.00;;;;;;5009922;28;20662;-77
2024/01/06 01:37:48;;;;;;;16.33;5.55;;;6.50;77.90;;;;;;5012115;28;20229;-78
2024/01/06 01:40:18;;;;;;;13.20;7.38;;;6.50;77.90;;;;;;5007893;28;20907;-78
2024/01/06 01:42:46;;;;;;;15.88;5.95;;;6.50;77.90;;;;;;5011969;28;21129;-78
2024/01/06 01:45:14;;;;;;;9.60;5.53;;;6.50;77.90;;;;;;5013850;28;20209;-77
2024/01/06 01:47:43;;;;;;;13.13;5.90;;;6.50;78.00;;;;;;5010874;28;20206;-78
2024/01/06 01:50:12;;;;;;;10.25;4.47;;;6.50;78.00;;;;;;5008243;28;20221;-78
2024/01/06 01:52:41;;;;;;;12.25;4.90;;;6.50;78.00;;;;;;5007744;28;20698;-77
2024/01/06 01:55:10;;;;;;;66.03;27.15;;;6.50;77.90;;;;;;5012450;28;20210;-77
2024/01/06 01:57:39;;;;;;;65.82;22.60;;;6.40;77.80;;;;;;5006372;28;20220;-77
2024/01/06 02:00:10;;;;;;;23.58;8.43;;;6.40;77.80;;;;;;5007967;28;20225;-77
2024/01/06 02:02:41;;;;;;;22.60;10.05;;;6.40;77.80;;;;;;5010674;28;20241;-78
2024/01/06 02:05:09;;;;;;;25.35;12.07;;;6.40;77.90;;;;;;5009693;28;20292;-78
2024/01/06 02:07:37;;;;;;;15.10;7.60;;;6.30;77.80;;;;;;5012616;28;20221;-78
2024/01/06 02:10:06;;;;;;;11.60;5.80;;;6.30;77.70;;;;;;5016188;28;20219;-78
2024/01/06 02:12:33;;;;;;;8.60;4.47;;;6.30;77.80;;;;;;5008215;28;20205;-77
2024/01/06 02:15:02;;;;;;;11.93;4.47;;;6.30;77.80;;;;;;5008968;28;20210;-77
2024/01/06 02:17:30;;;;;;;19.85;9.75;;;6.30;77.90;;;;;;5021502;28;20205;-77
2024/01/06 02:19:58;;;;;;;30.58;11.73;;;6.30;77.80;;;;;;5005406;28;20236;-77
2024/01/06 02:22:28;;;;;;;24.23;10.15;;;6.20;77.80;;;;;;5010495;28;20233;-78
2024/01/06 02:24:56;;;;;;;27.48;10.63;;;6.20;77.80;;;;;;5004624;28;20202;-78
2024/01/06 02:27:24;;;;;;;25.13;11.23;;;6.20;77.80;;;;;;5007342;28;20238;-76
2024/01/06 02:29:52;;;;;;;15.48;7.53;;;6.20;77.80;;;;;;5004042;28;20281;-76
2024/01/06 02:32:20;;;;;;;34.20;13.80;;;6.20;77.90;;;;;;5007222;28;20289;-77
2024/01/06 02:34:48;;;;;;;17.60;9.00;;;6.20;78.00;;;;;;5009805;28;20214;-78
2024/01/06 02:37:16;;;;;;;20.88;10.02;;;6.20;77.90;;;;;;5012901;28;20204;-78
2024/01/06 02:39:45;;;;;;;32.63;14.10;;;6.20;78.00;;;;;;5003973;28;20235;-78
2024/01/06 02:42:13;;;;;;;25.55;10.98;;;6.20;78.10;;;;;;5002009;28;20577;-77
2024/01/06 02:44:41;;;;;;;19.55;9.35;;;6.20;78.00;;;;;;5002722;28;20247;-78
2024/01/06 02:47:09;;;;;;;29.85;12.43;;;6.20;78.10;;;;;;5002943;28;20241;-78
2024/01/06 02:49:37;;;;;;;154.13;48.80;;;6.20;78.00;;;;;;5014609;28;20244;-79
2024/01/06 02:52:06;;;;;;;38.85;16.25;;;6.20;77.90;;;;;;5022848;28;20276;-76
2024/01/06 02:54:34;;;;;;;24.73;10.30;;;6.20;77.90;;;;;;5010104;28;20209;-77
2024/01/06 02:57:03;;;;;;;21.67;10.50;;;6.20;78.10;;;;;;5003713;28;20304;-77
2024/01/06 02:59:32;;;;;;;19.48;10.85;;;6.30;78.20;;;;;;5008991;28;20900;-77
2024/01/06 03:02:00;;;;;;;18.85;9.65;;;6.30;78.20;;;;;;5005016;28;20235;-78
2024/01/06 03:04:28;;;;;;;20.83;9.15;;;6.30;78.20;;;;;;5007963;28;20779;-77
2024/01/06 03:06:56;;;;;;;18.40;7.97;;;6.40;78.20;;;;;;5007691;28;20229;-78
2024/01/06 03:09:24;;;;;;;15.40;7.50;;;6.40;78.20;;;;;;5020929;28;20209;-78
2024/01/06 03:11:52;;;;;;;20.70;8.02;;;6.40;78.00;;;;;;5028645;28;20201;-79
2024/01/06 03:14:22;;;;;;;17.80;8.63;;;6.40;77.90;;;;;;5026002;28;20300;-78
2024/01/06 03:16:50;;;;;;;15.10;6.78;;;6.40;78.00;;;;;;5010233;28;21083;-78
2024/01/06 03:19:18;;;;;;;25.25;11.52;;;6.40;78.00;;;;;;5010836;28;20300;-78
2024/01/06 03:21:46;;;;;;;20.67;8.93;;;6.30;78.00;;;;;;5011743;28;20206;-78
2024/01/06 03:24:14;;;;;;;14.25;7.15;;;6.40;78.10;;;;;;5013462;28;20217;-78
2024/01/06 03:26:42;;;;;;;23.67;10.20;;;6.40;78.10;;;;;;5013046;28;20216;-78
2024/01/06 03:29:11;;;;;;;25.83;10.60;;;6.40;78.10;;;;;;5010899;28;20211;-77
2024/01/06 03:31:44;;;;;;;24.52;10.20;;;6.40;78.20;;;;;;4997319;28;21163;-78
2024/01/06 03:34:15;;;;;;;27.10;11.10;;;6.40;78.20;;;;;;4989683;28;20206;-78
2024/01/06 03:36:43;;;;;;;21.90;9.83;;;6.40;78.20;;;;;;4992784;28;20272;-78
2024/01/06 03:39:13;;;;;;;12.65;6.65;;;6.50;78.20;;;;;;4992273;28;20477;-77
2024/01/06 03:41:42;;;;;;;13.70;7.38;;;6.50;78.20;;;;;;4988662;28;20678;-78
2024/01/06 03:44:10;;;;;;;19.15;8.35;;;6.50;78.20;;;;;;4995421;28;20233;-79
2024/01/06 03:46:38;;;;;;;33.92;12.45;;;6.50;78.10;;;;;;4996191;28;20232;-78
2024/01/06 03:49:07;;;;;;;29.00;14.02;;;6.50;78.00;;;;;;4991207;28;20206;-78
2024/01/06 03:51:37;;;;;;;45.97;17.20;;;6.50;78.00;;;;;;4993367;28;20870;-78
2024/01/06 03:54:05;;;;;;;38.10;16.75;;;6.40;78.00;;;;;;4993720;28;20210;-78
2024/01/06 03:56:33;;;;;;;38.20;19.10;;;6.40;78.00;;;;;;5007491;28;20210;-78
2024/01/06 03:59:02;;;;;;;34.42;16.08;;;6.40;78.10;;;;;;4991627;28;20206;-77
2024/01/06 04:01:34;;;;;;;31.92;16.00;;;6.40;78.20;;;;;;4988919;28;20277;-78
2024/01/06 04:04:03;;;;;;;25.25;12.25;;;6.40;78.30;;;;;;4984188;28;20221;-77
2024/01/06 04:06:33;;;;;;;23.90;10.75;;;6.40;78.40;;;;;;4986715;28;20220;-78
2024/01/06 04:09:02;;;;;;;18.92;8.75;;;6.40;78.40;;;;;;4985445;28;20611;-78
2024/01/06 04:11:29;;;;;;;16.90;8.88;;;6.40;78.50;;;;;;4992972;28;20298;-77
2024/01/06 04:13:57;;;;;;;66.60;35.33;;;6.50;78.60;;;;;;4986906;28;20297;-78
2024/01/06 04:16:27;;;;;;;37.40;18.75;;;6.50;78.50;;;;;;4987485;28;20218;-77
2024/01/06 04:18:55;;;;;;;20.27;8.73;;;6.50;78.40;;;;;;4992453;28;20229;-78
2024/01/06 04:21:23;;;;;;;11.38;5.97;;;6.50;78.40;;;;;;4995289;28;20290;-78
2024/01/06 04:23:52;;;;;;;9.10;5.60;;;6.50;78.50;;;;;;4990071;28;20210;-79
2024/01/06 04:26:20;;;;;;;13.15;6.78;;;6.50;78.60;;;;;;4992598;28;21112;-78
2024/01/06 04:28:48;;;;;;;11.25;6.57;;;6.60;78.60;;;;;;4997861;28;20214;-79
2024/01/06 04:31:16;;;;;;;15.38;5.95;;;6.60;78.70;;;;;;5003077;28;20236;-79
2024/01/06 04:33:44;;;;;;;16.00;5.63;;;6.60;78.70;;;;;;5030798;28;20206;-77
2024/01/06 04:36:12;;;;;;;9.80;5.40;;;6.60;78.80;;;;;;5014472;28;20214;-78
2024/01/06 04:38:41;;;;;;;11.10;5.03;;;6.70;78.80;;;;;;5018561;28;20727;-78
2024/01/06 04:41:10;;;;;;;18.40;9.40;;;6.70;78.70;;;;;;5017795;28;20977;-78
2024/01/06 04:43:38;;;;;;;13.77;6.80;;;6.70;78.70;;;;;;5015579;28;20218;-78
2024/01/06 04:46:06;;;;;;;9.85;3.90;;;6.70;78.60;;;;;;5019260;28;20539;-78
2024/01/06 04:48:34;;;;;;;14.07;4.65;;;6.70;78.70;;;;;;5013413;28;20276;-78
2024/01/06 04:51:03;;;;;;;10.45;3.90;;;6.60;78.70;;;;;;5020052;28;20254;-78
2024/01/06 04:53:31;;;;;;;16.33;7.07;;;6.60;78.80;;;;;;5015190;28;20212;-78
2024/01/06 04:55:59;;;;;;;82.45;34.38;;;6.60;78.80;;;;;;5014646;28;20210;-79
2024/01/06 04:58:28;;;;;;;76.35;34.00;;;6.70;78.90;;;;;;5006139;28;20214;-77
2024/01/06 05:00:56;;;;;;;27.58;13.18;;;6.70;79.00;;;;;;5007366;28;20230;-78
2024/01/06 05:03:25;;;;;;;21.75;8.82;;;6.70;79.10;;;;;;5017460;28;20229;-78
2024/01/06 05:05:53;;;;;;;16.00;7.25;;;6.70;79.00;;;;;;5015959;28;20689;-78
2024/01/06 05:08:22;;;;;;;15.48;5.85;;;6.80;79.10;;;;;;5013061;28;20201;-77
2024/01/06 05:10:50;;;;;;;12.55;5.10;;;6.80;79.00;;;;;;5020109;28;20195;-78
2024/01/06 05:13:18;;;;;;;14.75;4.05;;;6.80;79.00;;;;;;5034167;28;20213;-78
2024/01/06 05:15:47;;;;;;;10.45;4.93;;;6.80;79.00;;;;;;5017460;28;20193;-78
2024/01/06 05:18:15;;;;;;;11.70;4.40;;;6.80;79.10;;;;;;5014528;28;20862;-78
2024/01/06 05:20:45;;;;;;;9.65;4.50;;;6.80;79.10;;;;;;5018591;28;20308;-78
2024/01/06 05:23:13;;;;;;;13.73;4.40;;;6.80;79.00;;;;;;5014648;28;20551;-78
2024/01/06 05:25:41;;;;;;;6.93;3.20;;;6.80;79.00;;;;;;5030417;28;20914;-78
2024/01/06 05:28:09;;;;;;;7.53;3.55;;;6.80;78.90;;;;;;5012660;28;20266;-78
2024/01/06 05:30:37;;;;;;;10.95;4.25;;;6.80;78.90;;;;;;5020973;28;20534;-78
2024/01/06 05:33:06;;;;;;;7.13;3.55;;;6.80;78.90;;;;;;5012156;28;20214;-77
2024/01/06 05:35:36;;;;;;;11.52;4.30;;;6.80;78.80;;;;;;5016490;28;20254;-77
2024/01/06 05:38:07;;;;;;;8.20;4.10;;;6.70;78.90;;;;;;5017223;28;20201;-78
2024/01/06 05:40:35;;;;;;;8.77;4.57;;;6.70;78.90;;;;;;5012610;28;20609;-78
2024/01/06 05:43:03;;;;;;;10.57;4.40;;;6.70;78.90;;;;;;5014858;28;20213;-78
2024/01/06 05:45:31;;;;;;;13.45;3.72;;;6.70;78.90;;;;;;5029809;28;20206;-78
2024/01/06 05:47:59;;;;;;;8.23;3.33;;;6.70;78.90;;;;;;5008987;28;20640;-78
2024/01/06 05:50:29;;;;;;;10.60;3.30;;;6.70;78.90;;;;;;5009901;28;20467;-78
2024/01/06 05:52:57;;;;;;;7.30;4.00;;;6.70;78.80;;;;;;5021351;28;20456;-78
2024/01/06 05:55:26;;;;;;;7.70;3.80;;;6.60;78.70;;;;;;5016762;28;20229;-78
2024/01/06 05:57:54;;;;;;;10.37;3.93;;;6.60;78.80;;;;;;5015374;28;20620;-78
2024/01/06 06:00:23;;;;;;;7.28;3.65;;;6.60;78.90;;;;;;5018308;28;20465;-78
2024/01/06 06:02:52;;;;;;;13.90;4.00;;;6.60;78.80;;;;;;5016704;28;20217;-77
2024/01/06 06:05:21;;;;;;;7.57;4.13;;;6.50;78.80;;;;;;5009725;28;20220;-79
2024/01/06 06:07:50;;;;;;;11.13;5.30;;;6.50;78.60;;;;;;5011776;28;20211;-78
2024/01/06 06:10:19;;;;;;;8.80;4.72;;;6.50;78.80;;;;;;5021292;28;20214;-79
2024/01/06 06:12:47;;;;;;;11.30;5.00;;;6.50;78.90;;;;;;5015848;28;20297;-78
2024/01/06 06:15:15;;;;;;;10.88;4.72;;;6.50;78.80;;;;;;5013546;28;20229;-77
2024/01/06 06:17:43;;;;;;;12.95;4.63;;;6.40;78.80;;;;;;5013321;28;20216;-78
2024/01/06 06:20:11;;;;;;;7.55;4.65;;;6.40;78.90;;;;;;5039805;28;20233;-78
2024/01/06 06:22:39;;;;;;;10.63;4.75;;;6.40;78.90;;;;;;5014527;28;20226;-78
2024/01/06 06:25:09;;;;;;;8.77;4.18;;;6.40;79.00;;;;;;5007810;28;20546;-78
2024/01/06 06:27:39;;;;;;;9.23;4.13;;;6.50;79.10;;;;;;5009336;28;20206;-78
2024/01/06 06:30:08;;;;;;;7.78;3.75;;;6.50;79.20;;;;;;5025669;28;20288;-78
2024/01/06 06:32:39;;;;;;;8.88;4.03;;;6.50;79.20;;;;;;5019607;28;20287;-78
2024/01/06 06:35:08;;;;;;;7.80;4.20;;;6.60;79.20;;;;;;5006920;28;20210;-78
2024/01/06 06:37:36;;;;;;;12.18;4.00;;;6.60;79.10;;;;;;5013104;28;20228;-78
2024/01/06 06:40:06;;;;;;;12.20;5.13;;;6.60;79.00;;;;;;5011578;28;20201;-78
2024/01/06 06:42:35;;;;;;;13.55;4.10;;;6.60;79.10;;;;;;5018129;28;20289;-78
2024/01/06 06:45:03;;;;;;;7.95;3.85;;;6.60;79.10;;;;;;5014884;28;20338;-78
2024/01/06 06:47:31;;;;;;;9.63;4.15;;;6.60;79.20;;;;;;5013645;28;20210;-78
2024/01/06 06:50:00;;;;;;;8.40;4.30;;;6.70;79.20;;;;;;5012088;28;20210;-77
2024/01/06 06:52:28;;;;;;;8.45;4.50;;;6.70;79.20;;;;;;5012368;28;20263;-78
2024/01/06 06:54:56;;;;;;;12.52;5.07;;;6.70;79.20;;;;;;5009607;28;20305;-79
2024/01/06 06:57:24;;;;;;;10.50;4.55;;;6.80;79.20;;;;;;5008495;28;20210;-78
2024/01/06 06:59:53;;;;;;;8.75;4.22;;;6.80;79.10;;;;;;5030470;28;20593;-79
2024/01/06 07:02:21;;;;;;;11.55;4.57;;;6.80;79.10;;;;;;5011360;28;20215;-79
2024/01/06 07:04:49;;;;;;;8.30;4.05;;;6.80;79.20;;;;;;4998426;28;20213;-79
2024/01/06 07:07:17;;;;;;;9.02;3.75;;;6.80;79.20;;;;;;5024901;28;20293;-79
2024/01/06 07:09:45;;;;;;;10.68;5.32;;;6.80;79.20;;;;;;4994930;28;20209;-79
2024/01/06 07:12:13;;;;;;;13.68;5.88;;;6.80;79.10;;;;;;4995897;28;20218;-78
2024/01/06 07:14:42;;;;;;;10.35;5.18;;;6.80;79.00;;;;;;4994800;28;20338;-78
2024/01/06 07:17:11;;;;;;;10.07;4.53;;;6.80;79.20;;;;;;4990546;28;20249;-78
2024/01/06 07:19:39;;;;;;;12.13;5.50;;;6.80;79.20;;;;;;4989571;28;20206;-77
2024/01/06 07:22:07;;;;;;;9.00;4.22;;;6.80;79.20;;;;;;4988814;28;20988;-78
2024/01/06 07:24:36;;;;;;;13.38;4.30;;;6.80;79.20;;;;;;4992173;28;20541;-78
2024/01/06 07:27:04;;;;;;;7.93;4.25;;;6.90;79.20;;;;;;4985961;28;20214;-78
2024/01/06 07:29:32;;;;;;;7.97;4.35;;;6.90;79.30;;;;;;4989489;28;20199;-78
2024/01/06 07:32:00;;;;;;;7.47;3.95;;;6.90;79.30;;;;;;4995434;28;20240;-77
2024/01/06 07:34:30;;;;;;;8.70;4.75;;;6.90;79.30;;;;;;4987223;28;20203;-77
2024/01/06 07:36:58;;;;;;;9.35;4.15;;;6.90;79.30;;;;;;4989783;28;20206;-78
2024/01/06 07:39:26;;;;;;;10.40;5.60;;;6.90;79.30;;;;;;4992347;28;20803;-77
2024/01/06 07:41:54;;;;;;;11.65;5.93;;;7.00;79.30;;;;;;4995841;28;20561;-77
2024/01/06 07:44:24;;;;;;;14.70;7.90;;;7.00;79.40;;;;;;4985646;28;20216;-77
2024/01/06 07:46:54;;;;;;;12.30;8.20;;;7.00;79.40;;;;;;4987874;28;20522;-77
2024/01/06 07:49:22;;;;;;;16.17;9.93;;;7.00;79.20;;;;;;4988268;28;20820;-78
2024/01/06 07:51:51;;;;;;;21.50;11.70;;;7.00;79.10;;;;;;4988260;28;20237;-78
2024/01/06 07:54:20;;;;;;;29.00;17.15;;;7.00;79.30;;;;;;4991614;28;20256;-77
2024/01/06 07:56:48;;;;;;;26.75;15.40;;;7.00;79.20;;;;;;4990089;28;20604;-78
2024/01/06 07:59:16;;;;;;;20.73;13.23;;;7.00;79.20;;;;;;4991921;28;20216;-78
2024/01/06 08:01:43;;;;;;;15.50;9.83;;;7.10;79.20;;;;;;4997336;28;20300;-78
2024/01/06 08:04:12;;;;;;;12.73;7.80;;;7.10;79.20;;;;;;4992225;28;20466;-78
2024/01/06 08:06:40;;;;;;;13.32;7.40;;;7.10;79.10;;;;;;4993447;28;20771;-78
2024/01/06 08:09:09;;;;;;;13.10;7.80;;;7.10;79.20;;;;;;4989918;28;20202;-77
2024/01/06 08:11:39;;;;;;;11.00;6.57;;;7.10;79.20;;;;;;4990012;28;20527;-78
2024/01/06 08:14:08;;;;;;;15.88;6.10;;;7.10;79.30;;;;;;5006144;28;20480;-78
2024/01/06 08:16:37;;;;;;;12.03;6.00;;;7.10;79.30;;;;;;4989449;28;20205;-78
2024/01/06 08:19:05;;;;;;;12.50;5.75;;;7.10;79.30;;;;;;4989374;28;20501;-78
2024/01/06 08:21:34;;;;;;;12.68;6.50;;;7.10;79.30;;;;;;4992290;28;20210;-78
2024/01/06 08:24:02;;;;;;;12.40;6.10;;;7.10;79.30;;;;;;5009484;28;20214;-78
2024/01/06 08:26:32;;;;;;;11.85;6.00;;;7.20;79.30;;;;;;4993557;28;20456;-78
2024/01/06 08:29:00;;;;;;;10.40;6.00;;;7.20;79.30;;;;;;4994396;28;20202;-78
2024/01/06 08:31:28;;;;;;;12.50;6.10;;;7.20;79.30;;;;;;4997559;28;20240;-78
2024/01/06 08:33:56;;;;;;;9.77;5.80;;;7.20;79.30;;;;;;5013348;28;20460;-78
2024/01/06 08:36:24;;;;;;;11.50;5.10;;;7.20;79.20;;;;;;5012191;28;21134;-78
2024/01/06 08:38:53;;;;;;;11.38;6.20;;;7.20;79.20;;;;;;5002371;28;20518;-77
2024/01/06 08:41:21;;;;;;;12.30;6.30;;;7.20;79.20;;;;;;5017111;28;20190;-79
2024/01/06 08:43:50;;;;;;;13.07;6.03;;;7.20;79.30;;;;;;5011525;28;20487;-79
2024/01/06 08:46:18;;;;;;;10.70;6.63;;;7.20;79.30;;;;;;5017378;28;20811;-81
2024/01/06 08:48:48;;;;;;;13.15;6.55;;;7.20;79.30;;;;;;5019253;28;20198;-81
2024/01/06 08:51:16;;;;;;;12.85;6.00;;;7.20;79.30;;;;;;5015495;28;20198;-81
2024/01/06 08:53:45;;;;;;;10.83;5.60;;;7.30;79.30;;;;;;5021236;28;20560;-81
2024/01/06 08:56:15;;;;;;;11.07;5.13;;;7.30;79.30;;;;;;5019670;28;20476;-81
2024/01/06 08:58:44;;;;;;;10.77;5.80;;;7.30;79.40;;;;;;5020332;28;20199;-80
2024/01/06 09:01:13;;;;;;;8.30;4.85;;;7.30;79.40;;;;;;5019166;28;20953;-79
2024/01/06 09:03:42;;;;;;;10.48;5.40;;;7.40;79.40;;;;;;5015954;28;20209;-79
2024/01/06 09:06:10;;;;;;;9.82;6.00;;;7.40;79.30;;;;;;5028749;28;20234;-78
2024/01/06 09:08:38;;;;;;;12.38;6.80;;;7.40;79.40;;;;;;5011910;28;20855;-79
2024/01/06 09:11:06;;;;;;;12.53;6.80;;;7.40;79.40;;;;;;5014226;28;20721;-79
2024/01/06 09:13:34;;;;;;;10.37;5.93;;;7.40;79.30;;;;;;5016012;28;20462;-79
2024/01/06 09:16:03;;;;;;;10.00;5.03;;;7.40;79.30;;;;;;5019449;28;20958;-78
2024/01/06 09:18:33;;;;;;;16.70;6.88;;;7.40;79.30;;;;;;5017312;28;20945;-78
2024/01/06 09:21:03;;;;;;;11.57;5.93;;;7.40;79.30;;;;;;5015456;28;20224;-78
2024/01/06 09:23:31;;;;;;;12.20;5.35;;;7.40;79.30;;;;;;5021449;28;20229;-79
2024/01/06 09:25:59;;;;;;;11.98;6.00;;;7.40;79.30;;;;;;5035360;28;20210;-79
2024/01/06 09:28:28;;;;;;;7.83;5.20;;;7.40;79.30;;;;;;5013619;28;20233;-79
2024/01/06 09:30:56;;;;;;;10.48;5.18;;;7.40;79.30;;;;;;5018037;28;20572;-80
2024/01/06 09:33:24;;;;;;;12.37;5.27;;;7.40;79.30;;;;;;5023758;28;20213;-79
2024/01/06 09:35:54;;;;;;;9.82;5.97;;;7.40;79.40;;;;;;5018604;28;20471;-79
2024/01/06 09:38:22;;;;;;;11.13;6.40;;;7.40;79.40;;;;;;5017772;28;20215;-79
2024/01/06 09:40:50;;;;;;;11.10;5.40;;;7.50;79.20;;;;;;5024230;28;20220;-79
2024/01/06 09:43:18;;;;;;;14.93;6.10;;;7.50;79.20;;;;;;5017784;28;20551;-80
2024/01/06 09:45:55;;;;;;;10.02;4.85;;;7.50;79.20;;;;;;5019207;28;20241;-80
2024/01/06 09:48:28;;;;;;;13.93;5.97;;;7.50;79.30;;;;;;5020973;28;20556;-80
2024/01/06 09:51:04;;;;;;;11.70;6.22;;;7.50;79.30;;;;;;5019200;28;20461;-79
2024/01/06 09:53:37;;;;;;;11.40;5.65;;;7.50;79.30;;;;;;5031334;28;20202;-80
2024/01/06 09:56:06;;;;;;;11.77;5.43;;;7.50;79.30;;;;;;5027789;28;20227;-79
2024/01/06 09:58:36;;;;;;;9.20;5.40;;;7.50;79.30;;;;;;5022423;28;20529;-79
2024/01/06 10:01:06;;;;;;;9.18;4.80;;;7.50;79.50;;;;;;5018626;28;20508;-79
2024/01/06 10:03:36;;;;;;;10.43;5.43;;;7.60;79.50;;;;;;5018425;28;20229;-79
2024/01/06 10:06:07;;;;;;;9.37;5.23;;;7.60;79.50;;;;;;5013879;28;20232;-79
2024/01/06 10:08:36;;;;;;;9.15;5.13;;;7.60;79.50;;;;;;5019436;28;20464;-79
2024/01/06 10:11:04;;;;;;;9.13;5.00;;;7.60;79.50;;;;;;5033888;28;20224;-79
2024/01/06 10:13:32;;;;;;;10.95;5.53;;;7.60;79.50;;;;;;5021901;28;20543;-79
2024/01/06 10:16:00;;;;;;;9.97;5.43;;;7.70;79.60;;;;;;5032449;28;20728;-79
2024/01/06 10:18:29;;;;;;;11.10;5.57;;;7.70;79.60;;;;;;5012784;28;20461;-78
2024/01/06 10:20:58;;;;;;;13.60;5.13;;;7.70;79.50;;;;;;5012104;28;20448;-79
2024/01/06 10:23:29;;;;;;;9.07;5.33;;;7.70;79.50;;;;;;5012487;28;20477;-79
2024/01/06 10:26:04;;;;;;;15.23;4.90;;;7.80;79.50;;;;;;5015215;28;20548;-79
2024/01/06 10:28:32;;;;;;;9.70;5.30;;;7.80;79.50;;;;;;5008749;28;20461;-79
2024/01/06 10:31:02;;;;;;;10.40;5.10;;;7.80;79.50;;;;;;5010789;28;20477;-79
2024/01/06 10:33:33;;;;;;;10.50;5.50;;;7.80;79.60;;;;;;5013829;28;20454;-79
2024/01/06 10:36:01;;;;;;;9.23;5.17;;;7.90;79.60;;;;;;5014877;28;20511;-79
2024/01/06 10:38:31;;;;;;;9.23;4.55;;;7.90;79.50;;;;;;5019571;28;20543;-80
2024/01/06 10:40:59;;;;;;;11.13;5.33;;;7.90;79.60;;;;;;5034082;28;20202;-79
2024/01/06 10:43:28;;;;;;;8.00;4.60;;;7.90;79.60;;;;;;5017902;28;20491;-79
2024/01/06 10:45:57;;;;;;;7.50;4.40;;;7.90;79.60;;;;;;5006752;28;20465;-80
2024/01/06 10:48:27;;;;;;;11.85;5.60;;;7.90;79.60;;;;;;5016450;28;20461;-81
2024/01/06 10:50:56;;;;;;;11.80;5.10;;;8.00;79.60;;;;;;5015198;28;20197;-80
2024/01/06 10:53:27;;;;;;;11.13;4.90;;;8.00;79.60;;;;;;5016023;28;20448;-81
2024/01/06 10:55:58;;;;;;;8.70;4.73;;;8.00;79.60;;;;;;5014218;28;20953;-80
2024/01/06 10:58:26;;;;;;;6.80;4.50;;;8.00;79.50;;;;;;5014681;28;20460;-80
2024/01/06 11:00:58;;;;;;;9.70;5.17;;;8.00;79.50;;;;;;5013466;28;20468;-80
2024/01/06 11:03:28;;;;;;;9.70;4.70;;;8.00;79.60;;;;;;5024748;28;20469;-80
2024/01/06 11:05:57;;;;;;;9.80;4.80;;;8.00;79.60;;;;;;5011447;28;20726;-80
2024/01/06 11:08:27;;;;;;;9.63;4.77;;;8.00;79.50;;;;;;5015678;28;21039;-80
2024/01/06 11:10:59;;;;;;;10.00;5.00;;;8.00;79.50;;;;;;5017073;28;20467;-81
2024/01/06 11:13:27;;;;;;;7.67;4.90;;;8.00;79.60;;;;;;5015113;28;20548;-81
2024/01/06 11:15:56;;;;;;;9.07;4.40;;;8.00;79.70;;;;;;5020116;28;20524;-81
2024/01/06 11:18:37;;;;;;;9.20;4.63;;;8.00;79.70;;;;;;5020532;28;20511;-80
2024/01/06 11:21:25;;;;;;;11.50;5.00;;;8.00;79.70;;;;;;5015292;28;20502;-81
2024/01/06 11:24:14;;;;;;;8.63;4.43;;;8.10;79.70;;;;;;5013294;28;20480;-80
2024/01/06 11:26:45;;;;;;;12.10;4.80;;;8.10;79.70;;;;;;5012225;28;20456;-80
2024/01/06 11:29:13;;;;;;;9.23;4.73;;;8.10;79.70;;;;;;5010949;28;20463;-80
2024/01/06 11:31:41;;;;;;;10.03;5.27;;;8.10;79.70;;;;;;5010533;28;20472;-81
2024/01/06 11:34:21;;;;;;;9.50;4.60;;;8.10;79.60;;;;;;5010384;28;20488;-81
2024/01/06 11:36:50;;;;;;;8.10;4.67;;;8.10;79.60;;;;;;5035436;28;20461;-81
2024/01/06 11:39:38;;;;;;;8.93;4.80;;;8.20;79.60;;;;;;5013589;28;20528;-81
2024/01/06 11:42:11;;;;;;;12.90;4.10;;;8.20;79.60;;;;;;5011659;28;20445;-81
2024/01/06 11:44:52;;;;;;;9.90;4.90;;;8.20;79.60;;;;;;5013436;28;20830;-81
2024/01/06 11:47:23;;;;;;;10.87;4.80;;;8.30;79.60;;;;;;5009801;28;20555;-81
2024/01/06 11:49:56;;;;;;;10.67;5.67;;;8.30;79.60;;;;;;5016703;28;20464;-80
2024/01/06 11:52:31;;;;;;;9.47;5.10;;;8.30;79.50;;;;;;5014699;28;20467;-81
2024/01/06 11:54:59;;;;;;;10.40;5.53;;;8.30;79.60;;;;;;5012935;28;20485;-81
2024/01/06 11:57:30;;;;;;;8.60;5.00;;;8.30;79.60;;;;;;5010886;28;21285;-81
2024/01/06 11:59:58;;;;;;;9.70;5.30;;;8.30;79.60;;;;;;5013767;28;20444;-81
2024/01/06 12:02:26;;;;;;;9.43;5.03;;;8.30;79.50;;;;;;5015995;28;20472;-81
2024/01/06 12:04:54;;;;;;;11.00;5.37;;;8.30;79.50;;;;;;5013885;28;20500;-81
2024/01/06 12:07:23;;;;;;;8.83;5.00;;;8.30;79.60;;;;;;5012629;28;20484;-81
2024/01/06 12:10:01;;;;;;;11.00;6.13;;;8.30;79.60;;;;;;5018773;28;20497;-81
2024/01/06 12:12:30;;;;;;;14.93;5.03;;;8.30;79.60;;;;;;5014469;28;20474;-82
2024/01/06 12:14:58;;;;;;;9.97;4.27;;;8.40;79.60;;;;;;5011686;28;20985;-80
2024/01/06 12:17:30;;;;;;;9.50;5.93;;;8.40;79.50;;;;;;5028884;28;20461;-81
2024/01/06 12:19:59;;;;;;;9.50;5.00;;;8.40;79.50;;;;;;5013055;28;20548;-81
2024/01/06 12:22:27;;;;;;;8.47;5.17;;;8.40;79.40;;;;;;5014582;28;20540;-81
2024/01/06 12:24:55;;;;;;;10.80;4.70;;;8.40;79.50;;;;;;5011963;28;20472;-81
2024/01/06 12:27:26;;;;;;;10.90;6.30;;;8.40;79.50;;;;;;5016606;28;20510;-81
2024/01/06 12:29:57;;;;;;;10.00;5.20;;;8.40;79.60;;;;;;5012641;28;20449;-81
2024/01/06 12:32:25;;;;;;;8.07;4.70;;;8.40;79.60;;;;;;5015128;28;20473;-80
2024/01/06 12:34:55;;;;;;;11.97;5.20;;;8.50;79.60;;;;;;5015261;28;20828;-80
2024/01/06 12:37:24;;;;;;;10.40;5.10;;;8.50;79.50;;;;;;5011316;28;20453;-79
2024/01/06 12:39:51;;;;;;;9.47;5.00;;;8.50;79.50;;;;;;5014857;28;20456;-80
2024/01/06 12:42:21;;;;;;;10.00;5.43;;;8.50;79.50;;;;;;5014252;28;20489;-79
2024/01/06 12:44:50;;;;;;;10.00;5.83;;;8.50;79.50;;;;;;5016792;28;20487;-80
2024/01/06 12:47:19;;;;;;;9.60;5.70;;;8.50;79.40;;;;;;5022163;28;20461;-80
2024/01/06 12:49:47;;;;;;;11.17;5.67;;;8.50;79.50;;;;;;5015988;28;20890;-79
2024/01/06 12:52:16;;;;;;;12.53;6.00;;;8.50;79.50;;;;;;5017139;28;20921;-80
2024/01/06 12:54:44;;;;;;;10.10;5.70;;;8.50;79.50;;;;;;5013702;28;20453;-79
2024/01/06 12:57:14;;;;;;;10.13;5.93;;;8.50;79.50;;;;;;5015638;28;20524;-80